Погода METAR - Красноярск

Кемерово, Абакан, Красноярск, Новосибирск
Код METAR: UNKL 021800Z 00000MPS 6000 NSC M21/M23 Q1027 R29/810255 NOSIG RMK QFE744

Погода - Сейчас

Время: 2023-02-03 01:00, местное
Направление ветра: Штиль
Скорость ветра: 0 м/с
Видимость:
Температура: -21°C
Точка росы: -23°C
Атмосферное давление: 1027 гПа

Архив погоды

Время, местное Направление Скорость, м/с Температура, °C Точка росы, °C Давление, гПа
2023-02-03 01:00 Штиль 0 -21 -23 1027
2023-02-01 11:30 Штиль 0 -14 -16 1028
2023-01-31 19:00 ВСВ (70°) 2 -9 -12 1028
2023-01-30 22:30 ЗЮЗ (240°) 2 -11 -13 1026
2023-01-30 21:30 ЗЮЗ (260°) 3 -9 -12 1026
2023-01-30 11:00 ЗЮЗ (240°) 6 -9 -13 1014
2023-01-29 23:00 ЗСЗ (290°) 2 -9 -11 1011
2023-01-29 17:30 З (270°) 8 -5 -13 1009
2023-01-28 14:30 ЮЗ (230°) 2 -6 -9 1016
2023-01-19 06:30 Штиль 0 -26 -29 1027
2023-01-25 17:00 З (270°) 3 -14 -18 1023
2023-01-24 17:30 ЮЗ (230°) 2 -10 -14 1016
2023-01-21 19:30 Штиль 0 -39 -42 1050
2023-01-21 19:00 Штиль 0 -38 -42 1049
2023-01-17 15:00 ЗЮЗ (250°) 8, порывы до 14 -10 -13 1014
2023-01-16 16:30 Ю (190°) 3 -9 -14 1021
2023-01-13 11:00 ЮЮЗ (200°) 5 -16 -23 1031
2023-01-13 18:30 ЗЮЗ (250°) 4 -14 -17 1029
2023-01-12 07:30 Штиль 0 -32 -35 1039
2023-01-11 05:00 Штиль 0 -27 -30 1021
2023-01-09 15:30 ЗЮЗ (250°) 11, порывы до 19 -2 -12 1004
2023-01-08 09:00 Ю (190°) 3 -6 -10 1014
2023-01-08 08:00 Ю (180°) 4 -6 -10 1014
2023-01-06 16:30 Штиль 0 -5 -8 1005
2023-01-05 18:00 ЮЮЗ (200°) 5 -4 -7 1006
2023-01-03 19:30 Штиль 0 -19 -20 1019
2023-01-03 10:30 Штиль 0 -18 -19 1025
2023-01-02 15:00 Штиль 0 -10 -13 1031
2023-01-01 21:30 В (90°) 2 -17 -19 1033
2022-12-30 21:30 З (270°) 1 -25 -27 1036
2022-12-29 09:30 З (280°) 2 -11 -14 1023
2022-12-27 02:00 ЮЗ (220°) 3 -5 -8 1029
2022-12-25 07:30 Ю (190°) 3 -11 -14 1030
2022-12-25 04:00 ЮЗ (210°) 2 -11 -15 1030
2022-12-25 03:30 ЮЗ (210°) 3 -11 -15 1030
2022-12-23 14:30 ЗЮЗ (260°) 3 -10 -17 1037
2022-12-23 03:00 ЮЗ (210°) 2 -14 -18 1031
2022-12-21 22:00 ЮЮЗ (200°) 5 0 -5 1008
2022-12-20 17:00 Штиль 0 -17 -19 1017
2022-12-20 02:00 ЗЮЗ (250°) 1 -10 -13 1020
2022-12-19 13:30 ЗЮЗ (250°) 7, порывы до 12 -11 -15 1026
2022-12-17 08:00 Переменный 1 -19 -21 1035
2022-12-17 19:00 З (280°) 1 -17 -19 1029
2022-12-17 02:00 Переменный 1 -15 -17 1039
2022-12-16 17:00 ЗЮЗ (260°) 2 -11 -16 1046
2022-12-15 21:30 Штиль 0 -20 -23 1048
2022-12-15 16:00 Штиль 0 -18 -21 1049
2022-12-13 01:30 ЗСЗ (290°) 1 -32 -35 1030